sensor_id;sensor_type;location;lat;lon;timestamp;P1;durP1;ratioP1;P2;durP2;ratioP2
55913;SDS011;58179;48.776;9.124;2023-09-12T00:01:09;9.75;;;5.78;;
55913;SDS011;58179;48.776;9.124;2023-09-12T00:03:35;10.93;;;5.93;;
55913;SDS011;58179;48.776;9.124;2023-09-12T00:06:02;7.90;;;5.82;;
55913;SDS011;58179;48.776;9.124;2023-09-12T00:08:29;11.88;;;7.30;;
55913;SDS011;58179;48.776;9.124;2023-09-12T00:11:00;13.73;;;6.93;;
55913;SDS011;58179;48.776;9.124;2023-09-12T00:13:27;11.88;;;7.03;;
55913;SDS011;58179;48.776;9.124;2023-09-12T00:15:54;9.88;;;6.00;;
55913;SDS011;58179;48.776;9.124;2023-09-12T00:18:20;12.50;;;6.60;;
55913;SDS011;58179;48.776;9.124;2023-09-12T00:20:47;10.27;;;6.00;;
55913;SDS011;58179;48.776;9.124;2023-09-12T00:23:13;13.43;;;6.47;;
55913;SDS011;58179;48.776;9.124;2023-09-12T00:25:39;8.73;;;6.50;;
55913;SDS011;58179;48.776;9.124;2023-09-12T00:28:07;8.88;;;5.65;;
55913;SDS011;58179;48.776;9.124;2023-09-12T00:30:33;10.95;;;6.57;;
55913;SDS011;58179;48.776;9.124;2023-09-12T00:32:59;10.15;;;5.78;;
55913;SDS011;58179;48.776;9.124;2023-09-12T00:35:25;13.52;;;6.65;;
55913;SDS011;58179;48.776;9.124;2023-09-12T00:37:51;14.47;;;7.30;;
55913;SDS011;58179;48.776;9.124;2023-09-12T00:40:18;8.43;;;5.95;;
55913;SDS011;58179;48.776;9.124;2023-09-12T00:42:44;14.40;;;6.63;;
55913;SDS011;58179;48.776;9.124;2023-09-12T00:45:11;8.27;;;5.72;;
55913;SDS011;58179;48.776;9.124;2023-09-12T00:47:38;10.02;;;6.22;;
55913;SDS011;58179;48.776;9.124;2023-09-12T00:50:04;10.48;;;6.45;;
55913;SDS011;58179;48.776;9.124;2023-09-12T00:52:32;8.68;;;6.00;;
55913;SDS011;58179;48.776;9.124;2023-09-12T00:54:59;12.38;;;7.00;;
55913;SDS011;58179;48.776;9.124;2023-09-12T00:57:26;11.27;;;6.03;;
55913;SDS011;58179;48.776;9.124;2023-09-12T00:59:53;10.67;;;6.03;;
55913;SDS011;58179;48.776;9.124;2023-09-12T01:02:22;10.43;;;5.80;;
55913;SDS011;58179;48.776;9.124;2023-09-12T01:04:49;11.75;;;6.00;;
55913;SDS011;58179;48.776;9.124;2023-09-12T01:07:16;7.78;;;5.68;;
55913;SDS011;58179;48.776;9.124;2023-09-12T01:09:42;9.77;;;5.70;;
55913;SDS011;58179;48.776;9.124;2023-09-12T01:12:08;10.07;;;5.63;;
55913;SDS011;58179;48.776;9.124;2023-09-12T01:14:39;7.85;;;5.10;;
55913;SDS011;58179;48.776;9.124;2023-09-12T01:17:06;8.85;;;6.00;;
55913;SDS011;58179;48.776;9.124;2023-09-12T01:19:33;8.00;;;5.60;;
55913;SDS011;58179;48.776;9.124;2023-09-12T01:25:13;9.05;;;5.60;;
55913;SDS011;58179;48.776;9.124;2023-09-12T01:28:01;8.35;;;5.25;;
55913;SDS011;58179;48.776;9.124;2023-09-12T01:30:29;7.00;;;4.63;;
55913;SDS011;58179;48.776;9.124;2023-09-12T01:32:57;8.18;;;5.70;;
55913;SDS011;58179;48.776;9.124;2023-09-12T01:35:24;8.02;;;5.47;;
55913;SDS011;58179;48.776;9.124;2023-09-12T01:37:50;7.40;;;5.57;;
55913;SDS011;58179;48.776;9.124;2023-09-12T01:40:16;8.82;;;5.20;;
55913;SDS011;58179;48.776;9.124;2023-09-12T01:42:45;6.23;;;4.80;;
55913;SDS011;58179;48.776;9.124;2023-09-12T01:45:16;11.93;;;5.70;;
55913;SDS011;58179;48.776;9.124;2023-09-12T01:47:44;9.32;;;5.60;;
55913;SDS011;58179;48.776;9.124;2023-09-12T01:50:12;9.52;;;5.90;;
55913;SDS011;58179;48.776;9.124;2023-09-12T01:52:41;9.43;;;5.55;;
55913;SDS011;58179;48.776;9.124;2023-09-12T01:55:08;9.63;;;6.22;;
55913;SDS011;58179;48.776;9.124;2023-09-12T01:57:35;8.70;;;5.38;;
55913;SDS011;58179;48.776;9.124;2023-09-12T02:00:02;8.32;;;5.15;;
55913;SDS011;58179;48.776;9.124;2023-09-12T02:02:31;7.80;;;5.63;;
55913;SDS011;58179;48.776;9.124;2023-09-12T02:04:58;7.80;;;5.30;;
55913;SDS011;58179;48.776;9.124;2023-09-12T02:07:32;8.02;;;5.15;;
55913;SDS011;58179;48.776;9.124;2023-09-12T02:10:01;8.93;;;5.60;;
55913;SDS011;58179;48.776;9.124;2023-09-12T02:12:29;10.18;;;6.13;;
55913;SDS011;58179;48.776;9.124;2023-09-12T02:14:56;8.15;;;5.45;;
55913;SDS011;58179;48.776;9.124;2023-09-12T02:17:22;7.15;;;5.25;;
55913;SDS011;58179;48.776;9.124;2023-09-12T02:19:49;10.67;;;6.07;;
55913;SDS011;58179;48.776;9.124;2023-09-12T02:22:16;9.35;;;6.57;;
55913;SDS011;58179;48.776;9.124;2023-09-12T02:24:42;9.10;;;5.80;;
55913;SDS011;58179;48.776;9.124;2023-09-12T02:27:08;11.40;;;6.65;;
55913;SDS011;58179;48.776;9.124;2023-09-12T02:29:34;10.15;;;6.07;;
55913;SDS011;58179;48.776;9.124;2023-09-12T02:32:01;9.97;;;6.60;;
55913;SDS011;58179;48.776;9.124;2023-09-12T02:34:30;8.75;;;5.53;;
55913;SDS011;58179;48.776;9.124;2023-09-12T02:36:57;8.63;;;5.43;;
55913;SDS011;58179;48.776;9.124;2023-09-12T02:39:23;9.75;;;5.35;;
55913;SDS011;58179;48.776;9.124;2023-09-12T02:41:49;9.77;;;6.18;;
55913;SDS011;58179;48.776;9.124;2023-09-12T02:44:16;14.93;;;6.88;;
55913;SDS011;58179;48.776;9.124;2023-09-12T02:46:42;8.73;;;5.53;;
55913;SDS011;58179;48.776;9.124;2023-09-12T02:49:08;11.13;;;6.68;;
55913;SDS011;58179;48.776;9.124;2023-09-12T02:51:36;8.70;;;5.75;;
55913;SDS011;58179;48.776;9.124;2023-09-12T02:54:05;9.63;;;5.93;;
55913;SDS011;58179;48.776;9.124;2023-09-12T02:56:31;9.93;;;6.07;;
55913;SDS011;58179;48.776;9.124;2023-09-12T02:58:57;10.52;;;6.70;;
55913;SDS011;58179;48.776;9.124;2023-09-12T03:01:24;9.18;;;6.40;;
55913;SDS011;58179;48.776;9.124;2023-09-12T03:03:52;8.18;;;5.50;;
55913;SDS011;58179;48.776;9.124;2023-09-12T03:06:19;9.50;;;5.73;;
55913;SDS011;58179;48.776;9.124;2023-09-12T03:08:45;11.30;;;6.32;;
55913;SDS011;58179;48.776;9.124;2023-09-12T03:11:13;8.80;;;5.97;;
55913;SDS011;58179;48.776;9.124;2023-09-12T03:13:40;9.25;;;6.30;;
55913;SDS011;58179;48.776;9.124;2023-09-12T03:16:09;11.05;;;6.32;;
55913;SDS011;58179;48.776;9.124;2023-09-12T03:18:35;9.98;;;6.38;;
55913;SDS011;58179;48.776;9.124;2023-09-12T03:21:01;12.45;;;6.40;;
55913;SDS011;58179;48.776;9.124;2023-09-12T03:23:28;9.38;;;5.80;;
55913;SDS011;58179;48.776;9.124;2023-09-12T03:25:54;7.88;;;5.57;;
55913;SDS011;58179;48.776;9.124;2023-09-12T03:28:25;7.95;;;5.15;;
55913;SDS011;58179;48.776;9.124;2023-09-12T03:30:52;9.00;;;5.78;;
55913;SDS011;58179;48.776;9.124;2023-09-12T03:33:27;7.97;;;5.90;;
55913;SDS011;58179;48.776;9.124;2023-09-12T03:35:54;11.10;;;6.47;;
55913;SDS011;58179;48.776;9.124;2023-09-12T03:38:20;10.77;;;6.20;;
55913;SDS011;58179;48.776;9.124;2023-09-12T03:40:46;10.18;;;6.03;;
55913;SDS011;58179;48.776;9.124;2023-09-12T03:43:12;12.30;;;6.75;;
55913;SDS011;58179;48.776;9.124;2023-09-12T03:45:40;7.63;;;5.72;;
55913;SDS011;58179;48.776;9.124;2023-09-12T03:48:06;9.98;;;6.18;;
55913;SDS011;58179;48.776;9.124;2023-09-12T03:50:32;8.63;;;6.00;;
55913;SDS011;58179;48.776;9.124;2023-09-12T03:52:58;12.20;;;6.13;;
55913;SDS011;58179;48.776;9.124;2023-09-12T03:55:24;10.55;;;6.63;;
55913;SDS011;58179;48.776;9.124;2023-09-12T03:57:51;10.45;;;6.75;;
55913;SDS011;58179;48.776;9.124;2023-09-12T04:00:17;9.45;;;6.00;;
55913;SDS011;58179;48.776;9.124;2023-09-12T04:02:44;8.52;;;6.10;;
55913;SDS011;58179;48.776;9.124;2023-09-12T04:05:10;10.00;;;6.47;;
55913;SDS011;58179;48.776;9.124;2023-09-12T04:07:37;12.63;;;6.97;;
55913;SDS011;58179;48.776;9.124;2023-09-12T04:10:03;10.27;;;6.50;;
55913;SDS011;58179;48.776;9.124;2023-09-12T04:12:30;10.15;;;6.95;;
55913;SDS011;58179;48.776;9.124;2023-09-12T04:14:56;11.57;;;6.90;;
55913;SDS011;58179;48.776;9.124;2023-09-12T04:17:22;16.17;;;7.57;;
55913;SDS011;58179;48.776;9.124;2023-09-12T04:19:50;9.82;;;6.22;;
55913;SDS011;58179;48.776;9.124;2023-09-12T04:22:16;10.43;;;6.78;;
55913;SDS011;58179;48.776;9.124;2023-09-12T04:24:42;9.35;;;5.88;;
55913;SDS011;58179;48.776;9.124;2023-09-12T04:27:09;10.13;;;6.32;;
55913;SDS011;58179;48.776;9.124;2023-09-12T04:29:35;8.20;;;5.88;;
55913;SDS011;58179;48.776;9.124;2023-09-12T04:32:01;7.85;;;5.68;;
55913;SDS011;58179;48.776;9.124;2023-09-12T04:34:28;8.48;;;5.57;;
55913;SDS011;58179;48.776;9.124;2023-09-12T04:36:57;8.70;;;6.05;;
55913;SDS011;58179;48.776;9.124;2023-09-12T04:39:23;7.40;;;5.45;;
55913;SDS011;58179;48.776;9.124;2023-09-12T04:41:49;5.75;;;4.88;;
55913;SDS011;58179;48.776;9.124;2023-09-12T04:44:16;10.73;;;6.40;;
55913;SDS011;58179;48.776;9.124;2023-09-12T04:46:42;9.32;;;6.25;;
55913;SDS011;58179;48.776;9.124;2023-09-12T04:49:08;10.73;;;6.22;;
55913;SDS011;58179;48.776;9.124;2023-09-12T04:51:34;8.77;;;5.88;;
55913;SDS011;58179;48.776;9.124;2023-09-12T04:54:02;9.18;;;6.85;;
55913;SDS011;58179;48.776;9.124;2023-09-12T04:56:28;8.10;;;6.15;;
55913;SDS011;58179;48.776;9.124;2023-09-12T04:58:55;8.32;;;6.10;;
55913;SDS011;58179;48.776;9.124;2023-09-12T05:01:21;13.00;;;6.88;;
55913;SDS011;58179;48.776;9.124;2023-09-12T05:03:47;9.98;;;6.93;;
55913;SDS011;58179;48.776;9.124;2023-09-12T05:06:13;10.20;;;7.20;;
55913;SDS011;58179;48.776;9.124;2023-09-12T05:08:39;13.75;;;7.22;;
55913;SDS011;58179;48.776;9.124;2023-09-12T05:11:08;11.27;;;6.75;;
55913;SDS011;58179;48.776;9.124;2023-09-12T05:13:34;14.40;;;7.47;;
55913;SDS011;58179;48.776;9.124;2023-09-12T05:16:00;10.77;;;7.50;;
55913;SDS011;58179;48.776;9.124;2023-09-12T05:18:27;11.40;;;7.13;;
55913;SDS011;58179;48.776;9.124;2023-09-12T05:20:53;11.15;;;7.05;;
55913;SDS011;58179;48.776;9.124;2023-09-12T05:23:19;11.90;;;7.18;;
55913;SDS011;58179;48.776;9.124;2023-09-12T05:25:45;9.27;;;6.73;;
55913;SDS011;58179;48.776;9.124;2023-09-12T05:28:13;9.13;;;6.00;;
55913;SDS011;58179;48.776;9.124;2023-09-12T05:30:41;10.07;;;6.25;;
55913;SDS011;58179;48.776;9.124;2023-09-12T05:33:07;11.20;;;6.33;;
55913;SDS011;58179;48.776;9.124;2023-09-12T05:35:33;10.57;;;7.13;;
55913;SDS011;58179;48.776;9.124;2023-09-12T05:38:00;10.65;;;7.20;;
55913;SDS011;58179;48.776;9.124;2023-09-12T05:40:26;11.20;;;6.90;;
55913;SDS011;58179;48.776;9.124;2023-09-12T05:42:52;9.20;;;6.70;;
55913;SDS011;58179;48.776;9.124;2023-09-12T05:45:20;8.80;;;6.03;;
55913;SDS011;58179;48.776;9.124;2023-09-12T05:47:46;8.52;;;6.15;;
55913;SDS011;58179;48.776;9.124;2023-09-12T05:50:13;9.07;;;6.05;;
55913;SDS011;58179;48.776;9.124;2023-09-12T05:52:39;11.10;;;6.22;;
55913;SDS011;58179;48.776;9.124;2023-09-12T05:55:07;8.70;;;5.57;;
55913;SDS011;58179;48.776;9.124;2023-09-12T05:57:34;9.70;;;5.90;;
55913;SDS011;58179;48.776;9.124;2023-09-12T06:00:00;8.73;;;6.43;;
55913;SDS011;58179;48.776;9.124;2023-09-12T06:02:31;8.73;;;6.68;;
55913;SDS011;58179;48.776;9.124;2023-09-12T06:04:58;15.50;;;7.32;;
55913;SDS011;58179;48.776;9.124;2023-09-12T06:07:24;13.07;;;8.70;;
55913;SDS011;58179;48.776;9.124;2023-09-12T06:09:51;10.80;;;7.60;;
55913;SDS011;58179;48.776;9.124;2023-09-12T06:12:17;10.35;;;7.38;;
55913;SDS011;58179;48.776;9.124;2023-09-12T06:14:43;9.75;;;6.80;;
55913;SDS011;58179;48.776;9.124;2023-09-12T06:17:09;14.23;;;7.78;;
55913;SDS011;58179;48.776;9.124;2023-09-12T06:19:37;10.43;;;7.32;;
55913;SDS011;58179;48.776;9.124;2023-09-12T06:22:04;7.88;;;6.47;;
55913;SDS011;58179;48.776;9.124;2023-09-12T06:24:30;8.87;;;6.83;;
55913;SDS011;58179;48.776;9.124;2023-09-12T06:26:57;8.57;;;6.65;;
55913;SDS011;58179;48.776;9.124;2023-09-12T06:29:23;9.65;;;7.25;;
55913;SDS011;58179;48.776;9.124;2023-09-12T06:31:49;10.88;;;7.35;;
55913;SDS011;58179;48.776;9.124;2023-09-12T06:34:15;8.70;;;6.90;;
55913;SDS011;58179;48.776;9.124;2023-09-12T06:36:43;8.52;;;6.43;;
55913;SDS011;58179;48.776;9.124;2023-09-12T06:39:10;9.05;;;6.85;;
55913;SDS011;58179;48.776;9.124;2023-09-12T06:41:36;8.68;;;6.65;;
55913;SDS011;58179;48.776;9.124;2023-09-12T06:44:02;13.77;;;7.63;;
55913;SDS011;58179;48.776;9.124;2023-09-12T06:46:30;15.07;;;8.48;;
55913;SDS011;58179;48.776;9.124;2023-09-12T06:49:00;13.77;;;8.23;;
55913;SDS011;58179;48.776;9.124;2023-09-12T06:51:27;11.63;;;8.38;;
55913;SDS011;58179;48.776;9.124;2023-09-12T06:53:55;12.23;;;7.70;;
55913;SDS011;58179;48.776;9.124;2023-09-12T06:56:21;11.70;;;7.63;;
55913;SDS011;58179;48.776;9.124;2023-09-12T06:58:48;9.55;;;6.78;;
55913;SDS011;58179;48.776;9.124;2023-09-12T07:01:14;9.20;;;7.05;;
55913;SDS011;58179;48.776;9.124;2023-09-12T07:03:40;8.63;;;6.65;;
55913;SDS011;58179;48.776;9.124;2023-09-12T07:06:06;10.23;;;6.72;;
55913;SDS011;58179;48.776;9.124;2023-09-12T07:08:33;9.00;;;6.60;;
55913;SDS011;58179;48.776;9.124;2023-09-12T07:11:01;9.83;;;6.53;;
55913;SDS011;58179;48.776;9.124;2023-09-12T07:13:31;9.40;;;6.43;;
55913;SDS011;58179;48.776;9.124;2023-09-12T07:15:57;10.77;;;6.47;;
55913;SDS011;58179;48.776;9.124;2023-09-12T07:18:24;10.55;;;7.05;;
55913;SDS011;58179;48.776;9.124;2023-09-12T07:20:56;8.68;;;6.70;;
55913;SDS011;58179;48.776;9.124;2023-09-12T07:23:22;8.45;;;5.80;;
55913;SDS011;58179;48.776;9.124;2023-09-12T07:25:49;8.88;;;6.55;;
55913;SDS011;58179;48.776;9.124;2023-09-12T07:28:17;10.15;;;6.95;;
55913;SDS011;58179;48.776;9.124;2023-09-12T07:30:45;9.65;;;6.55;;
55913;SDS011;58179;48.776;9.124;2023-09-12T07:33:11;10.00;;;6.75;;
55913;SDS011;58179;48.776;9.124;2023-09-12T07:35:38;9.82;;;6.53;;
55913;SDS011;58179;48.776;9.124;2023-09-12T07:38:04;10.90;;;7.03;;
55913;SDS011;58179;48.776;9.124;2023-09-12T07:40:30;9.00;;;7.00;;
55913;SDS011;58179;48.776;9.124;2023-09-12T07:42:57;9.07;;;6.17;;
55913;SDS011;58179;48.776;9.124;2023-09-12T07:45:24;9.48;;;6.88;;
55913;SDS011;58179;48.776;9.124;2023-09-12T07:47:51;8.82;;;6.30;;
55913;SDS011;58179;48.776;9.124;2023-09-12T07:50:17;10.68;;;6.30;;
55913;SDS011;58179;48.776;9.124;2023-09-12T07:52:43;16.98;;;8.80;;
55913;SDS011;58179;48.776;9.124;2023-09-12T07:55:09;13.52;;;8.45;;
55913;SDS011;58179;48.776;9.124;2023-09-12T07:57:36;10.63;;;7.70;;
55913;SDS011;58179;48.776;9.124;2023-09-12T08:00:03;12.97;;;7.90;;
55913;SDS011;58179;48.776;9.124;2023-09-12T08:02:37;10.40;;;7.72;;
55913;SDS011;58179;48.776;9.124;2023-09-12T08:05:03;12.00;;;8.30;;
55913;SDS011;58179;48.776;9.124;2023-09-12T08:07:30;12.15;;;8.00;;
55913;SDS011;58179;48.776;9.124;2023-09-12T08:09:57;10.02;;;6.95;;
55913;SDS011;58179;48.776;9.124;2023-09-12T08:12:24;6.90;;;5.55;;
55913;SDS011;58179;48.776;9.124;2023-09-12T08:14:51;8.25;;;6.30;;
55913;SDS011;58179;48.776;9.124;2023-09-12T08:17:18;7.25;;;6.13;;
55913;SDS011;58179;48.776;9.124;2023-09-12T08:19:46;7.72;;;6.00;;
55913;SDS011;58179;48.776;9.124;2023-09-12T08:22:12;8.73;;;6.20;;
55913;SDS011;58179;48.776;9.124;2023-09-12T08:24:39;8.90;;;6.07;;
55913;SDS011;58179;48.776;9.124;2023-09-12T08:27:05;8.25;;;5.72;;
55913;SDS011;58179;48.776;9.124;2023-09-12T08:29:32;8.15;;;5.20;;
55913;SDS011;58179;48.776;9.124;2023-09-12T08:31:59;7.60;;;5.45;;
55913;SDS011;58179;48.776;9.124;2023-09-12T08:34:25;9.15;;;5.80;;
55913;SDS011;58179;48.776;9.124;2023-09-12T08:36:53;7.60;;;5.57;;
55913;SDS011;58179;48.776;9.124;2023-09-12T08:39:22;7.85;;;5.55;;
55913;SDS011;58179;48.776;9.124;2023-09-12T08:41:49;8.10;;;5.80;;
55913;SDS011;58179;48.776;9.124;2023-09-12T08:44:16;9.98;;;6.00;;
55913;SDS011;58179;48.776;9.124;2023-09-12T08:46:42;9.57;;;6.10;;
55913;SDS011;58179;48.776;9.124;2023-09-12T08:49:10;8.02;;;5.50;;
55913;SDS011;58179;48.776;9.124;2023-09-12T08:51:37;8.50;;;5.80;;
55913;SDS011;58179;48.776;9.124;2023-09-12T08:54:05;9.07;;;5.65;;
55913;SDS011;58179;48.776;9.124;2023-09-12T08:56:32;8.63;;;5.95;;
55913;SDS011;58179;48.776;9.124;2023-09-12T08:59:02;9.10;;;6.15;;
55913;SDS011;58179;48.776;9.124;2023-09-12T09:01:30;12.48;;;7.30;;
55913;SDS011;58179;48.776;9.124;2023-09-12T09:03:57;10.27;;;6.07;;
55913;SDS011;58179;48.776;9.124;2023-09-12T09:06:24;8.93;;;5.97;;
55913;SDS011;58179;48.776;9.124;2023-09-12T09:08:52;7.93;;;5.82;;
55913;SDS011;58179;48.776;9.124;2023-09-12T09:11:20;7.80;;;6.10;;
55913;SDS011;58179;48.776;9.124;2023-09-12T09:13:46;10.20;;;6.00;;
55913;SDS011;58179;48.776;9.124;2023-09-12T09:16:13;8.15;;;5.82;;
55913;SDS011;58179;48.776;9.124;2023-09-12T09:18:50;12.27;;;6.23;;
55913;SDS011;58179;48.776;9.124;2023-09-12T09:21:21;8.13;;;6.05;;
55913;SDS011;58179;48.776;9.124;2023-09-12T09:23:51;7.75;;;5.80;;
55913;SDS011;58179;48.776;9.124;2023-09-12T09:26:20;8.40;;;5.78;;
55913;SDS011;58179;48.776;9.124;2023-09-12T09:29:00;7.47;;;5.63;;
55913;SDS011;58179;48.776;9.124;2023-09-12T09:31:33;8.27;;;5.72;;
55913;SDS011;58179;48.776;9.124;2023-09-12T09:33:59;9.70;;;6.25;;
55913;SDS011;58179;48.776;9.124;2023-09-12T09:36:26;7.60;;;5.93;;
55913;SDS011;58179;48.776;9.124;2023-09-12T09:38:52;9.95;;;6.68;;
55913;SDS011;58179;48.776;9.124;2023-09-12T09:41:23;12.38;;;6.80;;
55913;SDS011;58179;48.776;9.124;2023-09-12T09:43:49;9.70;;;6.45;;
55913;SDS011;58179;48.776;9.124;2023-09-12T09:46:16;9.00;;;6.78;;
55913;SDS011;58179;48.776;9.124;2023-09-12T09:48:48;8.65;;;6.35;;
55913;SDS011;58179;48.776;9.124;2023-09-12T09:51:15;7.53;;;5.88;;
55913;SDS011;58179;48.776;9.124;2023-09-12T09:53:42;10.20;;;6.70;;
55913;SDS011;58179;48.776;9.124;2023-09-12T09:56:09;12.60;;;7.68;;
55913;SDS011;58179;48.776;9.124;2023-09-12T09:58:37;15.02;;;7.82;;
55913;SDS011;58179;48.776;9.124;2023-09-12T10:01:11;9.30;;;6.30;;
55913;SDS011;58179;48.776;9.124;2023-09-12T10:03:39;7.38;;;5.70;;
55913;SDS011;58179;48.776;9.124;2023-09-12T10:06:06;12.48;;;6.70;;
55913;SDS011;58179;48.776;9.124;2023-09-12T10:08:35;8.23;;;6.15;;
55913;SDS011;58179;48.776;9.124;2023-09-12T10:11:02;7.68;;;6.20;;
55913;SDS011;58179;48.776;9.124;2023-09-12T10:13:29;7.25;;;5.45;;
55913;SDS011;58179;48.776;9.124;2023-09-12T10:15:59;6.72;;;5.72;;
55913;SDS011;58179;48.776;9.124;2023-09-12T10:18:29;7.20;;;5.67;;
55913;SDS011;58179;48.776;9.124;2023-09-12T10:21:04;6.60;;;5.10;;
55913;SDS011;58179;48.776;9.124;2023-09-12T10:23:37;7.20;;;5.30;;
55913;SDS011;58179;48.776;9.124;2023-09-12T10:26:08;6.32;;;5.10;;
55913;SDS011;58179;48.776;9.124;2023-09-12T10:28:36;6.90;;;5.13;;
55913;SDS011;58179;48.776;9.124;2023-09-12T10:31:05;7.15;;;5.15;;
55913;SDS011;58179;48.776;9.124;2023-09-12T10:33:34;6.82;;;5.22;;
55913;SDS011;58179;48.776;9.124;2023-09-12T10:36:01;6.75;;;5.25;;
55913;SDS011;58179;48.776;9.124;2023-09-12T10:38:30;6.82;;;5.38;;
55913;SDS011;58179;48.776;9.124;2023-09-12T10:41:01;5.75;;;5.15;;
55913;SDS011;58179;48.776;9.124;2023-09-12T10:43:29;6.80;;;5.38;;
55913;SDS011;58179;48.776;9.124;2023-09-12T10:45:58;8.00;;;5.15;;
55913;SDS011;58179;48.776;9.124;2023-09-12T10:48:29;7.60;;;5.47;;
55913;SDS011;58179;48.776;9.124;2023-09-12T10:50:57;8.02;;;5.32;;
55913;SDS011;58179;48.776;9.124;2023-09-12T10:53:26;8.02;;;5.28;;
55913;SDS011;58179;48.776;9.124;2023-09-12T10:55:58;7.15;;;5.38;;
55913;SDS011;58179;48.776;9.124;2023-09-12T11:01:37;5.97;;;5.03;;
55913;SDS011;58179;48.776;9.124;2023-09-12T11:04:29;8.35;;;5.43;;
55913;SDS011;58179;48.776;9.124;2023-09-12T11:06:59;7.18;;;5.70;;
55913;SDS011;58179;48.776;9.124;2023-09-12T11:09:25;10.13;;;5.88;;
55913;SDS011;58179;48.776;9.124;2023-09-12T11:11:54;7.55;;;5.20;;
55913;SDS011;58179;48.776;9.124;2023-09-12T11:14:22;7.68;;;5.80;;
55913;SDS011;58179;48.776;9.124;2023-09-12T11:19:50;7.93;;;6.15;;
55913;SDS011;58179;48.776;9.124;2023-09-12T11:22:21;7.80;;;5.88;;
55913;SDS011;58179;48.776;9.124;2023-09-12T11:24:52;9.63;;;5.80;;
55913;SDS011;58179;48.776;9.124;2023-09-12T11:27:21;10.55;;;5.97;;
55913;SDS011;58179;48.776;9.124;2023-09-12T11:29:48;7.05;;;5.40;;
55913;SDS011;58179;48.776;9.124;2023-09-12T11:32:25;5.93;;;5.17;;
55913;SDS011;58179;48.776;9.124;2023-09-12T11:34:54;9.63;;;6.67;;
55913;SDS011;58179;48.776;9.124;2023-09-12T11:37:23;16.45;;;8.85;;
55913;SDS011;58179;48.776;9.124;2023-09-12T11:39:50;10.50;;;6.90;;
55913;SDS011;58179;48.776;9.124;2023-09-12T11:42:17;9.17;;;6.73;;
55913;SDS011;58179;48.776;9.124;2023-09-12T11:44:45;8.55;;;5.85;;
55913;SDS011;58179;48.776;9.124;2023-09-12T11:47:13;8.13;;;6.17;;
55913;SDS011;58179;48.776;9.124;2023-09-12T11:49:40;6.55;;;5.32;;
55913;SDS011;58179;48.776;9.124;2023-09-12T11:52:09;6.72;;;5.30;;
55913;SDS011;58179;48.776;9.124;2023-09-12T11:54:38;6.50;;;4.72;;
55913;SDS011;58179;48.776;9.124;2023-09-12T11:57:06;6.65;;;5.40;;
55913;SDS011;58179;48.776;9.124;2023-09-12T11:59:36;5.80;;;4.77;;
55913;SDS011;58179;48.776;9.124;2023-09-12T12:02:05;6.43;;;4.70;;
55913;SDS011;58179;48.776;9.124;2023-09-12T12:04:32;11.07;;;5.13;;
55913;SDS011;58179;48.776;9.124;2023-09-12T12:06:59;5.82;;;4.93;;
55913;SDS011;58179;48.776;9.124;2023-09-12T12:09:28;6.00;;;4.47;;
55913;SDS011;58179;48.776;9.124;2023-09-12T12:11:54;6.03;;;4.53;;
55913;SDS011;58179;48.776;9.124;2023-09-12T12:14:25;6.13;;;5.00;;
55913;SDS011;58179;48.776;9.124;2023-09-12T12:16:51;5.80;;;4.97;;
55913;SDS011;58179;48.776;9.124;2023-09-12T12:19:18;7.32;;;4.72;;
55913;SDS011;58179;48.776;9.124;2023-09-12T12:21:44;6.00;;;4.97;;
55913;SDS011;58179;48.776;9.124;2023-09-12T12:24:11;13.18;;;6.07;;
55913;SDS011;58179;48.776;9.124;2023-09-12T12:26:41;7.32;;;4.95;;
55913;SDS011;58179;48.776;9.124;2023-09-12T12:29:08;7.10;;;4.95;;
55913;SDS011;58179;48.776;9.124;2023-09-12T12:31:35;5.90;;;5.28;;
55913;SDS011;58179;48.776;9.124;2023-09-12T12:34:01;6.45;;;5.43;;
55913;SDS011;58179;48.776;9.124;2023-09-12T12:36:30;7.97;;;4.63;;
55913;SDS011;58179;48.776;9.124;2023-09-12T12:38:58;7.15;;;5.30;;
55913;SDS011;58179;48.776;9.124;2023-09-12T12:41:25;9.48;;;5.47;;
55913;SDS011;58179;48.776;9.124;2023-09-12T12:43:56;7.00;;;4.95;;
55913;SDS011;58179;48.776;9.124;2023-09-12T12:46:25;7.20;;;5.60;;
55913;SDS011;58179;48.776;9.124;2023-09-12T12:48:54;12.07;;;5.20;;
55913;SDS011;58179;48.776;9.124;2023-09-12T12:51:21;7.63;;;5.47;;
55913;SDS011;58179;48.776;9.124;2023-09-12T12:53:50;6.57;;;4.55;;
55913;SDS011;58179;48.776;9.124;2023-09-12T12:56:19;8.23;;;5.50;;
55913;SDS011;58179;48.776;9.124;2023-09-12T12:58:47;6.07;;;4.20;;
55913;SDS011;58179;48.776;9.124;2023-09-12T13:01:16;5.22;;;4.35;;
55913;SDS011;58179;48.776;9.124;2023-09-12T13:03:42;6.00;;;4.47;;
55913;SDS011;58179;48.776;9.124;2023-09-12T13:06:09;7.28;;;4.40;;
55913;SDS011;58179;48.776;9.124;2023-09-12T13:08:39;5.82;;;4.80;;
55913;SDS011;58179;48.776;9.124;2023-09-12T13:11:07;9.00;;;4.95;;
55913;SDS011;58179;48.776;9.124;2023-09-12T13:13:33;6.47;;;4.32;;
55913;SDS011;58179;48.776;9.124;2023-09-12T13:16:00;5.40;;;4.20;;
55913;SDS011;58179;48.776;9.124;2023-09-12T13:18:27;6.97;;;4.38;;
55913;SDS011;58179;48.776;9.124;2023-09-12T13:20:53;5.70;;;4.22;;
55913;SDS011;58179;48.776;9.124;2023-09-12T13:23:20;6.32;;;4.10;;
55913;SDS011;58179;48.776;9.124;2023-09-12T13:25:47;9.70;;;4.57;;
55913;SDS011;58179;48.776;9.124;2023-09-12T13:28:13;8.30;;;4.30;;
55913;SDS011;58179;48.776;9.124;2023-09-12T13:30:39;7.03;;;4.45;;
55913;SDS011;58179;48.776;9.124;2023-09-12T13:33:06;9.55;;;4.60;;
55913;SDS011;58179;48.776;9.124;2023-09-12T13:35:33;6.83;;;4.40;;
55913;SDS011;58179;48.776;9.124;2023-09-12T13:37:59;6.82;;;4.10;;
55913;SDS011;58179;48.776;9.124;2023-09-12T13:40:26;7.00;;;4.28;;
55913;SDS011;58179;48.776;9.124;2023-09-12T13:42:53;4.47;;;4.03;;
55913;SDS011;58179;48.776;9.124;2023-09-12T13:45:19;5.40;;;4.60;;
55913;SDS011;58179;48.776;9.124;2023-09-12T13:47:47;7.22;;;5.07;;
55913;SDS011;58179;48.776;9.124;2023-09-12T13:50:13;8.15;;;5.38;;
55913;SDS011;58179;48.776;9.124;2023-09-12T13:52:42;8.20;;;4.93;;
55913;SDS011;58179;48.776;9.124;2023-09-12T13:55:08;8.27;;;4.90;;
55913;SDS011;58179;48.776;9.124;2023-09-12T13:57:38;6.27;;;5.10;;
55913;SDS011;58179;48.776;9.124;2023-09-12T14:00:05;6.82;;;5.10;;
55913;SDS011;58179;48.776;9.124;2023-09-12T14:02:32;8.60;;;4.70;;
55913;SDS011;58179;48.776;9.124;2023-09-12T14:04:58;8.55;;;5.60;;
55913;SDS011;58179;48.776;9.124;2023-09-12T14:07:25;8.25;;;5.25;;
55913;SDS011;58179;48.776;9.124;2023-09-12T14:09:53;8.55;;;5.10;;
55913;SDS011;58179;48.776;9.124;2023-09-12T14:12:22;7.15;;;4.78;;
55913;SDS011;58179;48.776;9.124;2023-09-12T14:14:48;7.90;;;4.32;;
55913;SDS011;58179;48.776;9.124;2023-09-12T14:17:14;5.38;;;4.25;;
55913;SDS011;58179;48.776;9.124;2023-09-12T14:19:43;15.05;;;5.72;;
55913;SDS011;58179;48.776;9.124;2023-09-12T14:22:09;6.88;;;4.72;;
55913;SDS011;58179;48.776;9.124;2023-09-12T14:24:35;8.13;;;4.80;;
55913;SDS011;58179;48.776;9.124;2023-09-12T14:27:03;4.72;;;4.10;;
55913;SDS011;58179;48.776;9.124;2023-09-12T14:29:30;5.50;;;4.50;;
55913;SDS011;58179;48.776;9.124;2023-09-12T14:31:56;7.30;;;5.03;;
55913;SDS011;58179;48.776;9.124;2023-09-12T14:34:22;5.55;;;4.50;;
55913;SDS011;58179;48.776;9.124;2023-09-12T14:36:53;5.32;;;4.38;;
55913;SDS011;58179;48.776;9.124;2023-09-12T14:39:20;7.78;;;5.57;;
55913;SDS011;58179;48.776;9.124;2023-09-12T14:41:46;8.73;;;5.70;;
55913;SDS011;58179;48.776;9.124;2023-09-12T14:44:18;5.13;;;4.63;;
55913;SDS011;58179;48.776;9.124;2023-09-12T14:46:44;12.80;;;5.80;;
55913;SDS011;58179;48.776;9.124;2023-09-12T14:49:10;9.20;;;5.32;;
55913;SDS011;58179;48.776;9.124;2023-09-12T14:51:36;7.25;;;5.00;;
55913;SDS011;58179;48.776;9.124;2023-09-12T14:54:03;7.60;;;5.22;;